Предлагаем Вашему вниманию английскую версию страницы: AUTOTAF.ME 33984 - aviation weather forecast Feodosiya - kerch'

AUTOTAF 33984 - авиапрогноз Феодосия - Керчь

Сегодня рассвет 03:33 UTC, восход солнца 04:02 UTC,
местный полдень 09:46 UTC, заход солнца 15:31 UTC,
наступление темноты 16:00 UTC.

Краткий прогноз 33984 на 9 часов

AUTOTAF.ME 33984 070500Z 0706/0715 33006MPS 9999 SCT027    
  BECMG 0707/0709 NSC  
  BECMG 0710/0712 28005MPS  
  BECMG 0713/0715 23007MPS

Детальный прогноз 33984 на 24 часа

AUTOTAF.ME 33984 070500Z 0706/0806 33006MPS 9999 SCT027 TX04/0800Z TNM02/0715Z  
  BECMG 0707/0709 SKC  
  BECMG 0710/0712 28005MPS  
  BECMG 0713/0715 23007MPS  
  FM071800 25007MPS 9999 BKN026  
  FM080000 28003MPS 9999 SKC 
  FM080300 26006MPS 9999 SCT025

Подробный табличный прогноз

Время (UTC) miniAUTOTAF на 3 ч WX FZLVL
M AGL
ICE TURB Т
(°С)
Тd
(°С)
f(%) QNH
(гПа)
WIND/T
03 35005MPS 9999 SCT020 90 MOD SFC/FL30 3 -1 75 1028 ...
06 33006MPS 9999 SCT027 110 MOD SFC/FL30 2 -2 72 1027 ...
09 30005MPS 9999 SKC 240 MOD SFC/FL40 0 -4 72 1027 ...
12 28005MPS 9999 SKC 360 MOD SFC/FL50 -1 -5 74 1025 ...
15 23007MPS 9999 SKC 360 MOD SFC/FL50 -2 -5 81 1023 ...
18 25007MPS 9999 BKN026 420 FBL FL40/FL50 MOD SFC/FL50 -1 -4 78 1023 ...
21 25005MPS 9999 BKN026 360 FBL FL40/FL50 MOD SFC/FL50 2 -5 57 1022 ...
08.03.2021
00 28003MPS 9999 SKC 360 MOD FL30/FL40 4 -8 43 1021 ...
03 26006MPS 9999 SCT025 420 MOD SFC/FL40 3 -6 53 1019 ...
06 24007MPS 9999 SCT025 420 MOD SFC/FL40 1 -6 62 1019 ...
09 23008G13MPS 9999 SCT018 480 FBL FL40/FL50 MOD SFC/FL50 1 -5 66 1018 ...
12 23009G14MPS 9999 BKN018 540 FBL FL40/FL50 MOD SFC/FL40 -1 -5 71 1017 ...
15 24010G15MPS 9999 BKN018 600 FBL FL40/FL70 MOD SFC/FL30 -1 -4 77 1016 ...
18 27007MPS 9999 BKN018 630 FBL FL40/FL90 MOD SFC/FL20 2 -3 73 1017 ...
21 26005MPS 9999 -RA BKN011 -RA 600 FBL FL40/FL50 MOD SFC/FL40 5 -1 65 1017 ...


Широта 45°, долгота 36°, высота 0 м абс.
Средняя высота рельефа местности 8 м абс.
Прогнозы обновляются четыре раза в сутки: в 02, 08, 14, 20 ч всемирного времени.


Выбрать прогноз по другой модели Феодосия - Керчь
Онлайн-сводка гроз по Феодосия - Керчь (для РФ и ближнего зарубежья)
Карта фактических гроз в окрестностях Феодосия - Керчь
Динамические прогностические карты (ventusky.com)
Прогностическая карта высоты нижней границы облаков по Феодосия - Керчь (windy.com)
Выбрать другой город

Прогноз предназначен для личного научно-познавательного использования частными лицами
и не предназначен для принятия важных решений и выполнения реальных полётов воздушных судов

При копировании или ином использовании любых материалов данного сайта ссылка на © meteocenter.asia обязательна.

0.59/1